Time;durP1;ratioP1;P1;durP2;ratioP2;P2;SDS_P1;SDS_P2;PMS_P1;PMS_P2;Temp;Humidity;BMP_temperature;BMP_pressure;BME280_temperature;BME280_humidity;BME280_pressure;Samples;Min_cycle;Max_cycle;Signal;HPM_P1;HPM_P2
2021/08/24 00:01:51;;;;;;;5.38;1.48;;;;;;;13.52;91.13;101701.22;5026507;28;20404;-75
2021/08/24 00:04:19;;;;;;;3.33;1.50;;;;;;;13.39;91.96;101698.38;5045382;28;20508;-75
2021/08/24 00:06:48;;;;;;;10.02;2.72;;;;;;;13.42;91.88;101703.50;5045532;28;20063;-76
2021/08/24 00:09:16;;;;;;;6.72;2.40;;;;;;;13.28;93.08;101706.88;5008862;28;20120;-76
2021/08/24 00:11:43;;;;;;;5.75;1.67;;;;;;;13.20;93.72;101709.06;5048150;28;20656;-75
2021/08/24 00:14:10;;;;;;;4.72;1.80;;;;;;;13.22;93.68;101701.03;5033331;28;20642;-76
2021/08/24 00:16:41;;;;;;;4.57;2.17;;;;;;;13.12;94.71;101701.50;5031158;28;20368;-75
2021/08/24 00:19:20;;;;;;;6.68;2.28;;;;;;;13.01;95.54;101705.63;5034751;28;20052;-75
2021/08/24 00:21:48;;;;;;;4.38;1.98;;;;;;;13.03;95.52;101702.00;5027229;28;20059;-76
2021/08/24 00:24:17;;;;;;;6.00;1.95;;;;;;;13.00;95.95;101702.16;5031265;28;20045;-74
2021/08/24 00:26:44;;;;;;;4.72;1.92;;;;;;;12.91;96.72;101705.25;5014996;28;20094;-76
2021/08/24 00:29:12;;;;;;;6.75;2.03;;;;;;;12.94;97.03;101710.41;5026760;28;20060;-76
2021/08/24 00:31:39;;;;;;;7.15;3.60;;;;;;;12.86;96.96;101715.22;5032240;28;20053;-76
2021/08/24 00:34:07;;;;;;;8.18;2.08;;;;;;;12.76;98.40;101722.75;5030712;28;20246;-75
2021/08/24 00:36:34;;;;;;;4.82;1.65;;;;;;;12.83;97.95;101721.53;5015922;28;20057;-76
2021/08/24 00:39:02;;;;;;;6.90;2.00;;;;;;;12.82;98.36;101716.31;5011243;28;20212;-77
2021/08/24 00:41:29;;;;;;;5.20;1.88;;;;;;;12.70;98.70;101717.81;5031709;28;20095;-75
2021/08/24 00:43:57;;;;;;;3.92;2.15;;;;;;;12.62;99.67;101723.47;5027149;28;20099;-76
2021/08/24 00:46:34;;;;;;;8.98;1.88;;;;;;;12.72;99.52;101723.00;5033106;28;20051;-76
2021/08/24 00:49:09;;;;;;;5.63;2.15;;;;;;;12.67;99.49;101726.72;5047396;28;20188;-78
2021/08/24 00:51:38;;;;;;;4.55;2.10;;;;;;;12.64;100.00;101720.72;5028937;28;20063;-77
2021/08/24 00:54:10;;;;;;;4.18;2.08;;;;;;;12.59;100.00;101723.59;5031274;28;20056;-74
2021/08/24 00:56:39;;;;;;;5.60;2.10;;;;;;;12.51;100.00;101727.56;5018661;28;21779;-76
2021/08/24 00:59:07;;;;;;;6.53;2.17;;;;;;;12.53;100.00;101725.72;5024671;28;20102;-77
2021/08/24 01:01:34;;;;;;;5.50;2.22;;;;;;;12.49;100.00;101719.72;5027556;28;20055;-77
2021/08/24 01:04:03;;;;;;;5.68;2.17;;;;;;;12.42;100.00;101726.22;5029181;28;20052;-75
2021/08/24 01:06:41;;;;;;;8.13;2.35;;;;;;;12.38;100.00;101733.47;5012533;28;20068;-77
2021/08/24 01:09:42;;;;;;;3.90;2.03;;;;;;;12.26;100.00;101728.75;5009384;28;20544;-77
2021/08/24 01:12:43;;;;;;;7.93;2.38;;;;;;;12.15;100.00;101734.53;5046420;28;20121;-79
2021/08/24 01:15:36;;;;;;;7.65;2.40;;;;;;;12.14;100.00;101732.84;5007871;28;20132;-76
2021/08/24 01:18:21;;;;;;;4.50;2.22;;;;;;;11.96;100.00;101733.72;5028595;28;20160;-76
2021/08/24 01:21:11;;;;;;;8.87;2.10;;;;;;;12.07;100.00;101733.22;5051296;28;20217;-76
2021/08/24 01:23:52;;;;;;;6.95;2.53;;;;;;;12.02;100.00;101738.72;5028071;28;20051;-76
2021/08/24 01:26:27;;;;;;;5.13;1.83;;;;;;;11.83;100.00;101741.34;5028719;28;20048;-76
2021/08/24 01:29:31;;;;;;;7.65;2.30;;;;;;;11.65;100.00;101735.09;5028714;28;20500;-77
2021/08/24 01:32:12;;;;;;;7.70;2.38;;;;;;;11.64;100.00;101741.31;5037894;28;20136;-76
2021/08/24 01:35:12;;;;;;;8.82;3.05;;;;;;;11.76;100.00;101733.78;5030782;28;20047;-75
2021/08/24 01:37:47;;;;;;;11.55;2.97;;;;;;;11.64;100.00;101735.19;5042900;28;20136;-77
2021/08/24 01:40:18;;;;;;;5.68;2.67;;;;;;;11.61;100.00;101741.44;5029510;28;20144;-75
2021/08/24 01:42:45;;;;;;;6.22;2.17;;;;;;;11.72;100.00;101748.03;5011234;28;20041;-76
2021/08/24 01:45:25;;;;;;;7.05;2.92;;;;;;;11.54;100.00;101742.66;5024338;28;20140;-76
2021/08/24 01:47:56;;;;;;;6.68;2.80;;;;;;;11.49;100.00;101742.00;5028184;28;20538;-76
2021/08/24 01:50:37;;;;;;;10.60;2.50;;;;;;;11.44;100.00;101746.63;5029668;28;20079;-75
2021/08/24 01:53:13;;;;;;;4.00;2.22;;;;;;;11.46;100.00;101744.78;5026935;28;20577;-75
2021/08/24 01:55:41;;;;;;;;;;;;;;;11.42;100.00;101735.28;5019357;28;20060;-76
2021/08/24 01:58:17;;;;;;;7.93;2.47;;;;;;;11.53;100.00;101738.31;5026602;28;20300;-77
2021/08/24 02:00:47;;;;;;;7.60;2.88;;;;;;;11.53;100.00;101735.66;5013958;28;20148;-77
2021/08/24 02:03:17;;;;;;;6.28;2.40;;;;;;;11.49;100.00;101738.53;5023419;28;20435;-76
2021/08/24 02:05:55;;;;;;;8.52;2.78;;;;;;;11.34;100.00;101740.03;5029741;28;20041;-75
2021/08/24 02:08:23;;;;;;;5.80;2.60;;;;;;;11.36;100.00;101744.31;5009273;28;20061;-76
2021/08/24 02:10:55;;;;;;;9.38;2.83;;;;;;;11.29;100.00;101740.25;5006565;28;20551;-75
2021/08/24 02:13:24;;;;;;;8.02;2.58;;;;;;;11.39;100.00;101748.59;5012065;28;20087;-76
2021/08/24 02:15:54;;;;;;;6.97;2.78;;;;;;;11.28;100.00;101743.81;5035019;28;20344;-75
2021/08/24 02:18:26;;;;;;;6.35;2.50;;;;;;;11.31;100.00;101748.09;5025973;28;20140;-77
2021/08/24 02:21:01;;;;;;;8.15;2.47;;;;;;;11.22;100.00;101745.88;5029371;28;20323;-77
2021/08/24 02:23:30;;;;;;;9.10;2.70;;;;;;;11.24;100.00;101758.03;5012108;28;20059;-76
2021/08/24 02:26:00;;;;;;;7.20;2.78;;;;;;;11.15;100.00;101748.75;5007930;28;20075;-77
2021/08/24 02:28:35;;;;;;;7.00;2.50;;;;;;;11.30;100.00;101756.91;4994311;28;20051;-76
2021/08/24 02:31:10;;;;;;;7.88;2.60;;;;;;;11.37;100.00;101759.22;5013900;28;20393;-74
2021/08/24 02:33:44;;;;;;;6.15;3.03;;;;;;;11.36;100.00;101761.94;5025948;28;20053;-74
2021/08/24 02:36:13;;;;;;;7.03;2.67;;;;;;;11.23;100.00;101758.13;5011910;28;20468;-75
2021/08/24 02:38:46;;;;;;;8.55;2.50;;;;;;;11.13;100.00;101757.66;5025646;28;20053;-75
2021/08/24 02:41:17;;;;;;;9.00;2.70;;;;;;;11.22;100.00;101762.53;5025526;28;20475;-77
2021/08/24 02:44:04;;;;;;;8.02;2.70;;;;;;;11.23;100.00;101766.03;5009835;28;20051;-75
2021/08/24 02:46:34;;;;;;;;;;;;;;;11.22;100.00;101764.31;5028214;28;20045;-76
2021/08/24 02:49:13;;;;;;;8.50;2.33;;;;;;;11.22;100.00;101761.69;5031872;28;20651;-76
2021/08/24 02:51:40;;;;;;;7.03;2.80;;;;;;;11.15;100.00;101761.94;5026436;28;20055;-75
2021/08/24 02:54:24;;;;;;;7.40;2.85;;;;;;;11.08;100.00;101773.69;4992609;28;20588;-76
2021/08/24 02:56:51;;;;;;;10.57;2.75;;;;;;;11.04;100.00;101772.09;5041944;28;20152;-77
2021/08/24 02:59:18;;;;;;;6.90;2.85;;;;;;;10.99;100.00;101763.53;5029050;28;20049;-76
2021/08/24 03:01:45;;;;;;;15.85;3.80;;;;;;;11.02;100.00;101770.44;5045301;28;20049;-75
2021/08/24 03:04:13;;;;;;;6.40;3.13;;;;;;;10.97;100.00;101772.41;5043273;28;20144;-75
2021/08/24 03:06:43;;;;;;;7.40;2.92;;;;;;;11.01;100.00;101759.03;5026613;28;20055;-77
2021/08/24 03:09:12;;;;;;;14.93;3.20;;;;;;;10.92;100.00;101763.84;5051753;28;20077;-76
2021/08/24 03:11:51;;;;;;;5.75;2.47;;;;;;;10.94;100.00;101762.84;5028834;28;20041;-76
2021/08/24 03:14:22;;;;;;;6.40;2.53;;;;;;;10.93;100.00;101755.00;5031312;28;20051;-78
2021/08/24 03:16:59;;;;;;;13.18;3.55;;;;;;;10.86;100.00;101759.69;5018994;28;20783;-76
2021/08/24 03:19:30;;;;;;;10.43;3.53;;;;;;;10.86;100.00;101759.69;5045372;28;20033;-77
2021/08/24 03:21:59;;;;;;;8.10;3.25;;;;;;;10.79;100.00;101768.75;4996147;28;20135;-76
2021/08/24 03:24:27;;;;;;;7.70;3.15;;;;;;;10.86;100.00;101768.44;5032349;28;20049;-76
2021/08/24 03:26:55;;;;;;;9.20;3.13;;;;;;;10.87;100.00;101759.63;5027832;28;20258;-75
2021/08/24 03:29:22;;;;;;;7.50;2.88;;;;;;;10.79;100.00;101769.63;5026808;28;20139;-76
2021/08/24 03:31:56;;;;;;;8.70;2.40;;;;;;;10.79;100.00;101769.63;5028993;28;21420;-76
2021/08/24 03:34:24;;;;;;;7.47;2.85;;;;;;;10.78;100.00;101778.44;5041815;28;20484;-76
2021/08/24 03:36:51;;;;;;;9.88;2.47;;;;;;;10.84;100.00;101774.69;5048641;28;20126;-77
2021/08/24 03:39:19;;;;;;;10.02;3.50;;;;;;;10.91;100.00;101776.16;5005060;28;20403;-75
2021/08/24 03:41:46;;;;;;;8.57;2.58;;;;;;;10.85;100.00;101781.66;5046056;28;20041;-75
2021/08/24 03:44:13;;;;;;;7.13;2.90;;;;;;;10.84;100.00;101782.59;5016559;28;20065;-76
2021/08/24 03:46:40;;;;;;;11.38;3.55;;;;;;;10.75;100.00;101786.47;5026757;28;20240;-75
2021/08/24 03:49:07;;;;;;;6.53;3.03;;;;;;;10.65;100.00;101783.34;5051104;28;20346;-77
2021/08/24 03:51:34;;;;;;;9.18;3.20;;;;;;;10.65;100.00;101785.13;5031387;28;20053;-78
2021/08/24 03:54:02;;;;;;;10.23;3.40;;;;;;;10.78;100.00;101794.25;5031247;28;20640;-76
2021/08/24 03:56:29;;;;;;;5.90;2.55;;;;;;;10.71;100.00;101789.28;5045954;28;20059;-76
2021/08/24 03:58:56;;;;;;;7.60;3.33;;;;;;;10.77;100.00;101789.06;5030613;28;20084;-76
2021/08/24 04:01:23;;;;;;;13.77;3.38;;;;;;;10.68;100.00;101794.69;5025216;28;20124;-77
2021/08/24 04:03:51;;;;;;;9.18;3.78;;;;;;;10.70;100.00;101795.47;5032101;28;20147;-76
2021/08/24 04:06:18;;;;;;;6.50;3.40;;;;;;;10.74;100.00;101797.06;5052149;28;20079;-77
2021/08/24 04:08:45;;;;;;;5.85;2.88;;;;;;;10.72;100.00;101796.28;5042362;28;20052;-75
2021/08/24 04:11:12;;;;;;;9.95;3.17;;;;;;;10.87;100.00;101795.66;5027908;28;20057;-75
2021/08/24 04:13:40;;;;;;;9.27;2.72;;;;;;;10.82;100.00;101801.09;5050720;28;20128;-77
2021/08/24 04:16:09;;;;;;;5.55;2.75;;;;;;;10.87;100.00;101793.88;5043725;28;20353;-76
2021/08/24 04:18:38;;;;;;;7.80;2.90;;;;;;;10.92;100.00;101801.56;5043004;28;20041;-77
2021/08/24 04:21:11;;;;;;;9.02;3.13;;;;;;;10.95;100.00;101797.97;5000995;28;20092;-76
2021/08/24 04:23:39;;;;;;;7.10;2.63;;;;;;;10.92;100.00;101803.34;5024603;28;20531;-76
2021/08/24 04:26:06;;;;;;;7.03;2.58;;;;;;;11.00;100.00;101807.38;5025817;28;20131;-75
2021/08/24 04:28:34;;;;;;;8.38;3.15;;;;;;;10.96;100.00;101811.06;5051288;28;20120;-76
2021/08/24 04:31:03;;;;;;;8.82;2.92;;;;;;;11.06;100.00;101811.53;5025163;28;20342;-76
2021/08/24 04:33:32;;;;;;;9.80;3.35;;;;;;;11.19;100.00;101812.75;5027413;28;20071;-74
2021/08/24 04:35:59;;;;;;;5.50;2.72;;;;;;;11.08;100.00;101809.72;5045274;28;20420;-75
2021/08/24 04:38:28;;;;;;;6.75;3.38;;;;;;;11.12;100.00;101813.91;5027699;28;20526;-77
2021/08/24 04:40:55;;;;;;;7.35;3.35;;;;;;;11.20;100.00;101810.97;5044214;28;20476;-74
2021/08/24 04:43:22;;;;;;;7.30;2.88;;;;;;;11.26;100.00;101810.72;5031672;28;20127;-76
2021/08/24 04:45:49;;;;;;;10.77;2.92;;;;;;;11.45;100.00;101809.00;5020068;28;20137;-76
2021/08/24 04:48:17;;;;;;;8.85;3.00;;;;;;;11.48;100.00;101814.09;5017946;28;20053;-78
2021/08/24 04:50:45;;;;;;;7.10;2.72;;;;;;;11.74;100.00;101823.50;5030526;28;20118;-76
2021/08/24 04:53:12;;;;;;;8.50;2.88;;;;;;;11.87;100.00;101816.78;5030746;28;20048;-76
2021/08/24 04:55:42;;;;;;;5.15;2.83;;;;;;;11.94;100.00;101817.38;5047184;28;20045;-78
2021/08/24 04:58:13;;;;;;;9.93;3.13;;;;;;;11.99;100.00;101815.38;5012015;28;20044;-80
2021/08/24 05:00:40;;;;;;;8.52;3.17;;;;;;;12.35;100.00;101818.09;5046646;28;20915;-79
2021/08/24 05:03:08;;;;;;;7.68;2.55;;;;;;;12.65;100.00;101829.00;5047015;28;20136;-80
2021/08/24 05:05:35;;;;;;;7.68;3.05;;;;;;;12.66;100.00;101838.63;5029507;28;20471;-78
2021/08/24 05:08:04;;;;;;;5.13;2.75;;;;;;;12.48;100.00;101828.94;5014266;28;20523;-78
2021/08/24 05:10:31;;;;;;;8.20;3.03;;;;;;;12.60;100.00;101825.69;5014746;28;20081;-78
2021/08/24 05:13:00;;;;;;;9.70;2.70;;;;;;;12.71;100.00;101837.53;5018777;28;20040;-78
2021/08/24 05:15:27;;;;;;;6.15;2.72;;;;;;;13.02;100.00;101836.91;5030646;28;20545;-81
2021/08/24 05:17:55;;;;;;;7.20;2.58;;;;;;;13.13;99.66;101834.56;5031139;28;20051;-78
2021/08/24 05:20:23;;;;;;;9.07;3.17;;;;;;;13.02;99.80;101834.25;5033628;28;20148;-77
2021/08/24 05:22:50;;;;;;;7.28;2.42;;;;;;;13.04;100.00;101838.53;5011876;28;20132;-77
2021/08/24 05:25:20;;;;;;;8.95;3.47;;;;;;;13.14;99.35;101836.25;5034443;28;20049;-79
2021/08/24 05:27:47;;;;;;;7.32;2.15;;;;;;;13.17;98.05;101836.13;5026090;28;20419;-76
2021/08/24 05:30:20;;;;;;;7.38;2.50;;;;;;;13.21;97.83;101831.53;5031119;28;20136;-78
2021/08/24 05:32:48;;;;;;;6.72;2.33;;;;;;;13.25;97.48;101836.63;5016424;28;20118;-78
2021/08/24 05:35:20;;;;;;;6.93;2.00;;;;;;;13.21;97.54;101835.03;5035718;28;20502;-78
2021/08/24 05:37:48;;;;;;;8.15;2.00;;;;;;;13.28;97.67;101844.38;5019424;28;20095;-81
2021/08/24 05:40:15;;;;;;;11.55;2.17;;;;;;;13.29;96.89;101843.47;5031765;28;20139;-78
2021/08/24 05:42:46;;;;;;;6.45;2.30;;;;;;;13.34;96.41;101840.59;5011840;28;20048;-77
2021/08/24 05:45:14;;;;;;;5.20;2.22;;;;;;;13.20;97.04;101851.00;5033907;28;20124;-77
2021/08/24 05:47:41;;;;;;;6.90;2.58;;;;;;;13.43;95.73;101843.63;5027994;28;20140;-78
2021/08/24 05:50:10;;;;;;;5.25;2.00;;;;;;;13.47;95.56;101841.69;5035686;28;20665;-77
2021/08/24 05:52:37;;;;;;;7.35;2.30;;;;;;;13.68;94.34;101845.81;5012796;28;20122;-78
2021/08/24 05:55:05;;;;;;;4.60;2.13;;;;;;;13.87;92.48;101842.25;5034704;28;20040;-78
2021/08/24 05:57:33;;;;;;;6.40;2.13;;;;;;;14.14;91.53;101848.69;5029501;28;20479;-77
2021/08/24 06:00:00;;;;;;;7.82;2.05;;;;;;;14.38;89.08;101848.28;5028400;28;20184;-77
2021/08/24 06:02:30;;;;;;;3.30;1.80;;;;;;;14.21;89.53;101864.22;5023089;28;21291;-80
2021/08/24 06:04:58;;;;;;;7.32;2.85;;;;;;;14.29;89.15;101859.38;5031749;28;20344;-78
2021/08/24 06:07:25;;;;;;;6.20;2.58;;;;;;;14.83;86.78;101858.13;5039364;28;20045;-77
2021/08/24 06:09:52;;;;;;;11.48;2.70;;;;;;;15.94;80.95;101860.41;5029750;28;20420;-76
2021/08/24 06:12:20;;;;;;;7.47;2.35;;;;;;;16.51;76.96;101859.47;5033347;28;20555;-78
2021/08/24 06:14:48;;;;;;;6.25;2.00;;;;;;;17.64;71.52;101862.59;5031596;28;20049;-77
2021/08/24 06:17:15;;;;;;;3.53;1.80;;;;;;;17.98;69.01;101863.81;5024556;28;21392;-79
2021/08/24 06:19:44;;;;;;;8.80;1.92;;;;;;;18.16;68.13;101859.84;5014012;28;20145;-76
2021/08/24 06:22:11;;;;;;;6.32;2.20;;;;;;;18.90;64.85;101866.00;5041394;28;20049;-79
2021/08/24 06:24:39;;;;;;;6.38;2.00;;;;;;;20.50;59.01;101849.19;5005739;28;20040;-78
2021/08/24 06:27:06;;;;;;;4.32;1.75;;;;;;;21.17;55.82;101861.47;5010845;28;20087;-77
2021/08/24 06:29:33;;;;;;;6.63;3.10;;;;;;;21.22;55.88;101861.94;5016138;28;20045;-76
2021/08/24 06:32:04;;;;;;;2.78;1.85;;;;;;;21.57;53.00;101860.78;5009652;28;20072;-80
2021/08/24 06:34:34;;;;;;;3.45;1.70;;;;;;;20.68;55.70;101862.88;5032924;28;20542;-78
2021/08/24 06:37:02;;;;;;;3.70;1.67;;;;;;;21.05;54.89;101871.38;5004430;28;20049;-77
2021/08/24 06:39:30;;;;;;;6.13;1.70;;;;;;;21.62;53.38;101861.25;5048627;28;20135;-77
2021/08/24 06:41:57;;;;;;;5.32;1.48;;;;;;;22.00;51.57;101860.59;5026002;28;20567;-76
2021/08/24 06:44:24;;;;;;;7.10;1.98;;;;;;;22.00;51.54;101865.94;5035128;28;20056;-76
2021/08/24 06:46:53;;;;;;;5.32;2.03;;;;;;;22.92;49.82;101882.78;5027396;28;20048;-77
2021/08/24 06:49:21;;;;;;;7.00;2.33;;;;;;;23.06;48.80;101878.84;5026970;28;20511;-76
2021/08/24 06:51:48;;;;;;;4.38;1.90;;;;;;;21.73;52.23;101877.25;5026412;28;20348;-75
2021/08/24 06:54:15;;;;;;;5.15;2.05;;;;;;;22.37;50.69;101876.97;5026851;28;20211;-76
2021/08/24 06:56:43;;;;;;;3.05;1.70;;;;;;;23.11;48.72;101873.03;5046619;28;20575;-77
2021/08/24 06:59:10;;;;;;;6.22;2.30;;;;;;;22.43;49.50;101883.66;5019434;28;20057;-77
2021/08/24 07:01:38;;;;;;;4.13;1.70;;;;;;;23.54;47.34;101885.97;5026781;28;20087;-76
2021/08/24 07:04:06;;;;;;;3.80;1.88;;;;;;;24.78;44.07;101881.25;5016196;28;20045;-77
2021/08/24 07:06:50;;;;;;;9.95;2.15;;;;;;;24.07;45.36;101888.13;5029978;28;20056;-78
2021/08/24 07:09:17;;;;;;;3.10;2.10;;;;;;;24.49;44.27;101888.50;5048434;28;20255;-76
2021/08/24 07:11:45;;;;;;;3.15;1.58;;;;;;;25.39;42.37;101886.72;5011475;28;20136;-78
2021/08/24 07:14:12;;;;;;;2.55;1.50;;;;;;;25.86;40.41;101888.25;5040861;28;20144;-77
2021/08/24 07:16:43;;;;;;;4.93;2.08;;;;;;;24.07;43.66;101884.59;5025250;28;20472;-79
2021/08/24 07:19:11;;;;;;;3.00;1.52;;;;;;;24.32;43.82;101892.00;5028160;28;20041;-77
2021/08/24 07:22:07;;;;;;;5.10;1.75;;;;;;;24.20;44.17;101871.66;5028692;28;20251;-82
2021/08/24 07:24:36;;;;;;;3.22;2.22;;;;;;;23.83;44.07;101877.03;5032206;28;20477;-85
2021/08/24 07:27:04;;;;;;;3.47;1.83;;;;;;;22.83;47.01;101888.09;5055820;28;20429;-81
2021/08/24 07:29:33;;;;;;;11.18;2.17;;;;;;;22.95;46.11;101878.94;5049828;28;20132;-81
2021/08/24 07:32:01;;;;;;;4.32;1.67;;;;;;;23.25;45.90;101897.63;5027009;28;20127;-80
2021/08/24 07:34:28;;;;;;;2.47;1.48;;;;;;;23.18;45.60;101895.63;5023283;28;20431;-80
2021/08/24 07:36:56;;;;;;;6.40;2.15;;;;;;;24.79;42.58;101899.94;5004910;28;20522;-82
2021/08/24 07:39:24;;;;;;;5.07;1.80;;;;;;;24.16;42.88;101897.16;5020508;28;20461;-80
2021/08/24 07:41:52;;;;;;;4.30;1.67;;;;;;;23.54;44.91;101899.41;5018399;28;20060;-80
2021/08/24 07:44:24;;;;;;;4.63;1.40;;;;;;;23.18;44.91;101907.22;5011772;28;20054;-82
2021/08/24 07:46:51;;;;;;;4.25;1.63;;;;;;;23.14;44.28;101919.25;5035046;28;20499;-80
2021/08/24 07:49:19;;;;;;;5.18;1.65;;;;;;;23.74;43.01;101909.19;5032347;28;20480;-79
2021/08/24 07:51:46;;;;;;;3.85;1.60;;;;;;;24.18;41.65;101916.69;5024342;28;20443;-80
2021/08/24 07:54:13;;;;;;;3.53;1.50;;;;;;;24.42;41.64;101913.50;5026434;28;20081;-80
2021/08/24 07:56:40;;;;;;;6.22;1.75;;;;;;;24.33;40.63;101908.97;5033667;28;20160;-79
2021/08/24 07:59:07;;;;;;;2.40;1.75;;;;;;;25.14;39.25;101925.25;5012606;28;20073;-81
2021/08/24 08:01:38;;;;;;;4.03;1.77;;;;;;;24.18;40.62;101905.91;5043918;28;20099;-80
2021/08/24 08:04:05;;;;;;;4.95;1.90;;;;;;;24.88;39.08;101914.34;5026402;28;20091;-81
2021/08/24 08:06:32;;;;;;;1.90;1.15;;;;;;;25.32;38.80;101911.78;5050754;28;20096;-79
2021/08/24 08:09:00;;;;;;;8.98;1.85;;;;;;;25.77;38.59;101914.34;5043148;28;20148;-80
2021/08/24 08:11:29;;;;;;;2.60;1.60;;;;;;;25.95;37.37;101909.72;5043420;28;20053;-80
2021/08/24 08:13:56;;;;;;;6.68;1.92;;;;;;;26.12;36.86;101918.75;5044342;28;20141;-80
2021/08/24 08:16:24;;;;;;;4.28;2.00;;;;;;;25.05;38.37;101921.59;5016750;28;20080;-81
2021/08/24 08:18:51;;;;;;;4.72;1.65;;;;;;;23.87;40.14;101932.25;5010568;28;20045;-80
2021/08/24 08:21:19;;;;;;;2.65;1.42;;;;;;;24.76;39.04;101929.88;4994156;28;20053;-78
2021/08/24 08:23:46;;;;;;;2.67;1.60;;;;;;;25.14;37.79;101923.41;5028946;28;20053;-79
2021/08/24 08:26:14;;;;;;;4.95;1.65;;;;;;;25.42;38.00;101931.41;5033007;28;20106;-80
2021/08/24 08:28:41;;;;;;;4.68;1.45;;;;;;;24.89;37.65;101940.28;5012755;28;20059;-80
2021/08/24 08:31:12;;;;;;;5.18;1.40;;;;;;;25.08;38.30;101931.25;5050026;28;20139;-80
2021/08/24 08:33:40;;;;;;;2.72;1.30;;;;;;;24.55;38.90;101935.53;5016036;28;20045;-80
2021/08/24 08:36:11;;;;;;;3.92;1.75;;;;;;;24.98;38.11;101926.75;5034341;28;20061;-79
2021/08/24 08:38:39;;;;;;;2.95;1.42;;;;;;;24.25;39.31;101945.53;5047698;28;20087;-81
2021/08/24 08:41:33;;;;;;;3.67;1.70;;;;;;;23.02;41.90;101932.97;5016353;28;20494;-80
2021/08/24 08:44:04;;;;;;;4.00;1.75;;;;;;;21.11;45.39;101945.81;5042489;28;20068;-81
2021/08/24 08:46:44;;;;;;;4.40;1.50;;;;;;;19.99;48.80;101953.91;5028571;28;20077;-80
2021/08/24 08:49:37;;;;;;;3.35;1.58;;;;;;;19.41;50.90;101950.34;5039596;28;20040;-80
2021/08/24 08:52:15;;;;;;;9.25;1.75;;;;;;;18.88;52.30;101944.50;5021185;28;20055;-80
2021/08/24 08:54:56;;;;;;;4.97;1.65;;;;;;;18.58;53.75;101950.19;5017759;28;20419;-80
2021/08/24 08:57:46;;;;;;;2.58;1.50;;;;;;;18.78;52.98;101949.66;5016741;28;20064;-78
2021/08/24 09:00:19;;;;;;;3.00;1.65;;;;;;;18.83;53.26;101941.31;5021541;28;20099;-79
2021/08/24 09:03:00;;;;;;;5.50;1.63;;;;;;;18.91;53.29;101939.78;5025205;28;20135;-79
2021/08/24 09:05:28;;;;;;;2.95;1.42;;;;;;;19.01;53.15;101945.28;5021601;28;20159;-80
2021/08/24 09:07:56;;;;;;;3.00;1.73;;;;;;;18.90;53.53;101958.56;5013197;28;20210;-78
2021/08/24 09:10:29;;;;;;;5.60;2.10;;;;;;;18.54;54.53;101946.88;5034613;28;20127;-78
2021/08/24 09:13:00;;;;;;;2.97;1.52;;;;;;;18.40;55.31;101955.00;4986282;28;20132;-79
2021/08/24 09:15:36;;;;;;;3.47;1.42;;;;;;;18.48;55.70;101966.00;5029722;28;20037;-79
2021/08/24 09:18:05;;;;;;;3.22;1.88;;;;;;;18.09;56.15;101972.28;5017827;28;20140;-79
2021/08/24 09:20:38;;;;;;;3.63;1.15;;;;;;;18.51;56.00;101960.44;5035518;28;20447;-80
2021/08/24 09:23:06;;;;;;;4.97;2.25;;;;;;;18.87;54.39;101956.97;5051457;28;20068;-78
2021/08/24 09:26:00;;;;;;;4.90;2.00;;;;;;;19.23;53.10;101961.44;5047696;28;20102;-80
2021/08/24 09:28:29;;;;;;;2.83;1.60;;;;;;;19.60;51.31;101968.50;4996083;28;20052;-80
2021/08/24 09:31:01;;;;;;;3.33;1.52;;;;;;;19.71;50.66;101965.88;5012507;28;20056;-79
2021/08/24 09:33:29;;;;;;;5.35;2.70;;;;;;;19.23;51.17;101961.44;5018086;28;20072;-80
2021/08/24 09:35:57;;;;;;;4.43;1.83;;;;;;;19.18;51.12;101960.03;5038138;28;20336;-79
2021/08/24 09:38:28;;;;;;;3.75;1.65;;;;;;;19.44;50.40;101966.13;5030282;28;20067;-79
2021/08/24 09:41:01;;;;;;;3.63;1.67;;;;;;;19.85;49.91;101967.50;5015205;28;20147;-80
2021/08/24 09:43:36;;;;;;;2.70;2.00;;;;;;;19.40;50.38;101969.97;5028625;28;20087;-79
2021/08/24 09:46:10;;;;;;;3.05;1.92;;;;;;;19.07;51.15;101962.66;5031458;28;20495;-79
2021/08/24 09:49:08;;;;;;;4.47;1.98;;;;;;;19.04;51.12;101973.56;5030281;28;20052;-79
2021/08/24 09:51:45;;;;;;;4.22;2.30;;;;;;;19.23;49.88;101969.44;5014201;28;20188;-80
2021/08/24 09:54:36;;;;;;;3.13;1.95;;;;;;;19.35;49.90;101966.81;5015141;28;20471;-79
2021/08/24 09:57:16;;;;;;;3.90;2.22;;;;;;;19.02;49.78;101962.16;5029101;28;20057;-82
2021/08/24 10:00:23;;;;;;;4.95;2.42;;;;;;;19.35;50.10;101970.31;5035574;28;20056;-79
2021/08/24 10:02:53;;;;;;;4.25;1.90;;;;;;;19.12;50.38;101973.84;5028469;28;20100;-79
2021/08/24 10:05:20;;;;;;;11.50;2.55;;;;;;;19.05;50.47;101976.13;5053927;28;20072;-79
2021/08/24 10:07:51;;;;;;;6.95;2.40;;;;;;;19.25;50.07;101976.47;5036026;28;20053;-80
2021/08/24 10:10:21;;;;;;;4.47;2.40;;;;;;;19.62;49.05;101956.75;5025856;28;20048;-82
2021/08/24 10:12:54;;;;;;;2.97;1.58;;;;;;;20.18;48.62;101964.03;5033511;28;20091;-79
2021/08/24 10:15:28;;;;;;;;;;;;;;;20.38;47.28;101967.81;5035664;28;20045;-80
2021/08/24 10:17:58;;;;;;;4.03;1.92;;;;;;;20.23;47.32;101962.72;5049480;28;19920;-80
2021/08/24 10:20:33;;;;;;;6.63;2.10;;;;;;;20.07;48.10;101956.84;5025320;28;20132;-82
2021/08/24 10:23:05;;;;;;;5.15;2.55;;;;;;;20.41;45.38;101962.22;5018014;28;20129;-81
2021/08/24 10:25:43;;;;;;;6.43;2.40;;;;;;;19.69;47.33;101973.19;5023034;28;20084;-81
2021/08/24 10:28:20;;;;;;;5.50;2.30;;;;;;;19.11;48.46;101967.66;5016713;28;20045;-81
2021/08/24 10:30:52;;;;;;;4.40;2.30;;;;;;;19.25;48.38;101971.13;5019321;28;20452;-80
2021/08/24 10:33:24;;;;;;;4.20;2.25;;;;;;;19.32;47.83;101961.69;5024517;28;20122;-79
2021/08/24 10:35:56;;;;;;;5.15;3.30;;;;;;;19.76;46.81;101970.88;5053413;28;20127;-79
2021/08/24 10:38:43;;;;;;;4.75;2.30;;;;;;;19.76;45.13;101960.19;5027545;28;20045;-81
2021/08/24 10:41:21;;;;;;;5.75;2.40;;;;;;;19.86;46.68;101963.88;5027809;28;20044;-79
2021/08/24 10:43:52;;;;;;;5.72;2.55;;;;;;;19.64;47.61;101970.84;5030064;28;20143;-78
2021/08/24 10:46:19;;;;;;;3.53;2.20;;;;;;;19.48;47.63;101975.59;5035341;28;20124;-79
2021/08/24 10:48:47;;;;;;;4.63;2.45;;;;;;;19.62;47.35;101963.91;5030268;28;20056;-78
2021/08/24 10:51:32;;;;;;;6.18;2.55;;;;;;;19.58;47.72;101965.06;5036174;28;20088;-79
2021/08/24 10:54:13;;;;;;;5.32;2.00;;;;;;;19.69;46.53;101959.81;5019371;28;20040;-79
2021/08/24 10:56:43;;;;;;;6.05;3.00;;;;;;;20.02;46.04;101958.19;5052656;28;20060;-80
2021/08/24 10:59:19;;;;;;;6.53;2.63;;;;;;;20.11;46.12;101952.13;5028755;28;20118;-76
2021/08/24 11:01:52;;;;;;;5.10;2.35;;;;;;;20.13;45.95;101956.38;5045890;28;20054;-81
2021/08/24 11:04:46;;;;;;;3.85;2.47;;;;;;;19.76;45.60;101955.69;5028816;28;20111;-81
2021/08/24 11:07:28;;;;;;;5.13;3.10;;;;;;;19.96;46.07;101956.84;5019617;28;20106;-80
2021/08/24 11:10:33;;;;;;;7.00;2.70;;;;;;;19.96;45.19;101947.00;5039704;28;20076;-79
2021/08/24 11:13:15;;;;;;;4.18;2.40;;;;;;;20.21;43.40;101947.75;5026210;28;20216;-81
2021/08/24 11:15:47;;;;;;;6.25;2.75;;;;;;;20.07;42.15;101943.47;5035699;28;20543;-79
2021/08/24 11:18:39;;;;;;;7.22;2.50;;;;;;;19.77;41.34;101961.88;5024963;28;20151;-80
2021/08/24 11:21:19;;;;;;;5.03;2.90;;;;;;;19.93;41.95;101954.41;5025990;28;20143;-80
2021/08/24 11:24:09;;;;;;;5.55;2.60;;;;;;;20.06;41.12;101946.28;5007899;28;20053;-80
2021/08/24 11:26:47;;;;;;;5.15;2.92;;;;;;;20.02;41.27;101953.69;5042536;28;20531;-80
2021/08/24 11:29:14;;;;;;;5.50;3.03;;;;;;;19.89;41.56;101947.59;5012961;28;20136;-78
2021/08/24 11:32:20;;;;;;;7.72;2.75;;;;;;;19.86;41.17;101943.34;5042086;28;20048;-80
2021/08/24 11:35:01;;;;;;;5.88;3.00;;;;;;;20.19;41.71;101942.53;5026364;28;20130;-79
2021/08/24 11:37:35;;;;;;;6.72;2.97;;;;;;;20.60;42.25;101937.56;5046584;28;20646;-78
2021/08/24 11:40:07;;;;;;;6.57;3.27;;;;;;;20.76;42.23;101943.38;5028530;28;20061;-79
2021/08/24 11:42:41;;;;;;;8.20;3.60;;;;;;;20.18;43.79;101948.84;5022649;28;20067;-80
2021/08/24 11:45:20;;;;;;;7.63;3.35;;;;;;;19.85;42.84;101951.47;5044579;28;20122;-81